createdAt,value
2018-08-13T01:29:22.855Z,1007.19
2018-08-13T01:29:23.429Z,1007.18
2018-08-13T01:29:24.029Z,1007.16
2018-08-13T01:29:24.628Z,1007.21
2018-08-13T01:29:25.228Z,1007.18
2018-08-13T01:29:25.827Z,1007.18
2018-08-13T01:29:26.429Z,1007.19
2018-08-13T01:29:27.028Z,1007.17
2018-08-13T01:30:21.486Z,1007.18
2018-08-13T01:30:22.057Z,1007.17
2018-08-13T01:30:22.657Z,1007.18
2018-08-13T01:30:23.258Z,1007.16
2018-08-13T01:30:23.858Z,1007.14
2018-08-13T01:30:24.456Z,1007.16
2018-08-13T01:30:25.059Z,1007.14
2018-08-13T01:30:25.655Z,1007.15
2018-08-13T01:31:19.126Z,1007.15
2018-08-13T01:31:19.696Z,1007.16
2018-08-13T01:31:20.296Z,1007.16
2018-08-13T01:31:20.895Z,1007.17
2018-08-13T01:31:21.499Z,1007.13
2018-08-13T01:31:22.095Z,1007.13
2018-08-13T01:31:22.695Z,1007.14
2018-08-13T01:31:23.295Z,1007.17
2018-08-13T01:32:16.766Z,1007.13
2018-08-13T01:32:17.340Z,1007.12
2018-08-13T01:32:17.933Z,1007.14
2018-08-13T01:32:18.533Z,1007.10
2018-08-13T01:32:19.133Z,1007.14
2018-08-13T01:32:19.733Z,1007.14
2018-08-13T01:32:20.333Z,1007.11
2018-08-13T01:32:20.931Z,1007.13
2018-08-13T01:33:14.403Z,1007.14
2018-08-13T01:33:14.976Z,1007.12
2018-08-13T01:33:15.574Z,1007.16
2018-08-13T01:33:16.176Z,1007.11
2018-08-13T01:33:16.776Z,1007.13
2018-08-13T01:33:17.376Z,1007.13
2018-08-13T01:33:17.975Z,1007.13
2018-08-13T01:33:18.574Z,1007.16
2018-08-13T01:34:13.033Z,1007.08
2018-08-13T01:34:13.607Z,1007.09
2018-08-13T01:34:14.208Z,1007.14
2018-08-13T01:34:14.808Z,1007.09
2018-08-13T01:34:15.408Z,1007.10
2018-08-13T01:34:16.007Z,1007.11
2018-08-13T01:34:16.612Z,1007.09
2018-08-13T01:34:17.208Z,1007.09
2018-08-13T01:35:11.666Z,1007.13
2018-08-13T01:35:12.242Z,1007.07
2018-08-13T01:35:12.840Z,1007.06
2018-08-13T01:35:13.442Z,1007.09
2018-08-13T01:35:14.044Z,1007.13
2018-08-13T01:35:14.640Z,1007.09
2018-08-13T01:35:15.242Z,1007.12
2018-08-13T01:35:15.840Z,1007.11
2018-08-13T01:36:09.313Z,1007.07
2018-08-13T01:36:09.887Z,1007.09
2018-08-13T01:36:10.485Z,1007.07
2018-08-13T01:36:11.086Z,1007.08
2018-08-13T01:36:11.685Z,1007.11
2018-08-13T01:36:12.285Z,1007.06
2018-08-13T01:36:12.887Z,1007.10
2018-08-13T01:36:13.489Z,1007.12
2018-08-13T01:37:07.945Z,1007.08
2018-08-13T01:37:08.519Z,1007.08
2018-08-13T01:37:09.119Z,1007.02
2018-08-13T01:37:09.718Z,1007.03
2018-08-13T01:37:10.322Z,1007.03
2018-08-13T01:37:10.918Z,1007.04
2018-08-13T01:37:11.518Z,1007.08
2018-08-13T01:37:12.118Z,1007.08
2018-08-13T01:38:06.580Z,1007.04
2018-08-13T01:38:07.152Z,1007.05
2018-08-13T01:38:07.753Z,1007.02
2018-08-13T01:38:08.353Z,1007.04
2018-08-13T01:38:08.952Z,1007.04
2018-08-13T01:38:09.552Z,1007.04
2018-08-13T01:38:10.152Z,1007.02
2018-08-13T01:38:10.753Z,1007.04
2018-08-13T01:39:04.222Z,1007.05
2018-08-13T01:39:04.795Z,1007.01
2018-08-13T01:39:05.396Z,1007.02
2018-08-13T01:39:05.993Z,1007.04
2018-08-13T01:39:06.594Z,1007.01
2018-08-13T01:39:07.196Z,1007.02
2018-08-13T01:39:07.795Z,1007.00
2018-08-13T01:39:08.395Z,1007.00
2018-08-13T01:40:02.857Z,1007.03
2018-08-13T01:40:03.431Z,1007.01
2018-08-13T01:40:04.030Z,1007.01
2018-08-13T01:40:04.629Z,1006.99
2018-08-13T01:40:05.229Z,1007.01
2018-08-13T01:40:05.830Z,1007.02
2018-08-13T01:40:06.432Z,1007.01
2018-08-13T01:40:07.030Z,1006.99
2018-08-13T01:41:01.493Z,1006.98
2018-08-13T01:41:02.065Z,1006.97
2018-08-13T01:41:02.664Z,1006.97
2018-08-13T01:41:03.264Z,1006.98
2018-08-13T01:41:03.864Z,1006.98
2018-08-13T01:41:04.464Z,1006.98
2018-08-13T01:41:05.063Z,1006.99
2018-08-13T01:41:05.662Z,1007.00
2018-08-13T01:41:59.135Z,1006.96
2018-08-13T01:41:59.708Z,1007.02
2018-08-13T01:42:00.307Z,1007.00
2018-08-13T01:42:00.908Z,1006.99
2018-08-13T01:42:01.507Z,1006.98
2018-08-13T01:42:02.110Z,1006.99
2018-08-13T01:42:02.706Z,1006.98
2018-08-13T01:42:03.306Z,1007.00
2018-08-13T01:42:57.771Z,1007.00
2018-08-13T01:42:58.344Z,1007.04
2018-08-13T01:42:58.943Z,1007.04
2018-08-13T01:42:59.541Z,1006.99
2018-08-13T01:43:00.147Z,1007.02
2018-08-13T01:43:00.744Z,1007.01
2018-08-13T01:43:01.343Z,1007.03
2018-08-13T01:43:01.941Z,1007.00
2018-08-13T01:43:56.404Z,1007.03
2018-08-13T01:43:56.983Z,1007.04
2018-08-13T01:43:57.578Z,1007.02
2018-08-13T01:43:58.178Z,1007.02
2018-08-13T01:43:58.780Z,1007.02
2018-08-13T01:43:59.379Z,1007.03
2018-08-13T01:43:59.977Z,1007.02
2018-08-13T01:44:00.579Z,1007.03
2018-08-13T01:44:54.050Z,1007.05
2018-08-13T01:44:54.622Z,1007.04
2018-08-13T01:44:55.223Z,1007.01
2018-08-13T01:44:55.822Z,1007.05
2018-08-13T01:44:56.421Z,1007.06
2018-08-13T01:44:57.022Z,1007.05
2018-08-13T01:44:57.625Z,1007.06
2018-08-13T01:44:58.221Z,1007.05
2018-08-13T01:45:52.687Z,1007.05
2018-08-13T01:45:53.259Z,1007.04
2018-08-13T01:45:53.859Z,1007.03
2018-08-13T01:45:54.457Z,1007.02
2018-08-13T01:45:55.058Z,1007.04
2018-08-13T01:45:55.657Z,1007.04
2018-08-13T01:45:56.259Z,1007.05
2018-08-13T01:45:56.857Z,1007.04
2018-08-13T01:46:50.330Z,1007.05
2018-08-13T01:46:50.901Z,1007.01
2018-08-13T01:46:51.501Z,1007.05
2018-08-13T01:46:52.102Z,1007.01
2018-08-13T01:46:52.699Z,1007.04
2018-08-13T01:46:53.300Z,1007.07
2018-08-13T01:46:53.902Z,1007.03
2018-08-13T01:46:54.501Z,1007.02
2018-08-13T01:47:47.970Z,1007.03
2018-08-13T01:47:48.544Z,1007.05
2018-08-13T01:47:49.146Z,1007.05
2018-08-13T01:47:49.745Z,1007.08
2018-08-13T01:47:50.359Z,1007.02
2018-08-13T01:47:50.947Z,1007.03
2018-08-13T01:47:51.544Z,1007.04
2018-08-13T01:47:52.144Z,1007.04
2018-08-13T01:48:46.610Z,1007.02
2018-08-13T01:48:47.182Z,1007.03
2018-08-13T01:48:47.780Z,1007.02
2018-08-13T01:48:48.383Z,1007.01
2018-08-13T01:48:48.980Z,1007.02
2018-08-13T01:48:49.579Z,1007.03
2018-08-13T01:48:50.180Z,1007.04
2018-08-13T01:48:50.780Z,1007.03
2018-08-13T01:49:44.252Z,1007.06
2018-08-13T01:49:44.825Z,1007.06
2018-08-13T01:49:45.425Z,1007.02
2018-08-13T01:49:46.026Z,1007.05
2018-08-13T01:49:46.626Z,1007.04
2018-08-13T01:49:47.225Z,1007.01
2018-08-13T01:49:47.825Z,1007.04
2018-08-13T01:49:48.425Z,1007.04
2018-08-13T01:50:42.892Z,1007.03
2018-08-13T01:50:43.465Z,1007.00
2018-08-13T01:50:44.062Z,1007.05
2018-08-13T01:50:44.661Z,1007.06
2018-08-13T01:50:45.260Z,1007.04
2018-08-13T01:50:45.861Z,1007.06
2018-08-13T01:50:46.461Z,1007.06
2018-08-13T01:50:47.061Z,1007.05
2018-08-13T01:51:41.526Z,1007.00
2018-08-13T01:51:42.099Z,1007.00
2018-08-13T01:51:42.698Z,1007.05
2018-08-13T01:51:43.300Z,1006.99
2018-08-13T01:51:43.897Z,1007.02
2018-08-13T01:51:44.498Z,1007.02
2018-08-13T01:51:45.098Z,1007.02
2018-08-13T01:51:45.698Z,1006.99
2018-08-13T01:52:40.161Z,1007.03
2018-08-13T01:52:40.737Z,1007.03
2018-08-13T01:52:41.334Z,1007.01
2018-08-13T01:52:41.933Z,1007.00
2018-08-13T01:52:42.545Z,1006.98
2018-08-13T01:52:43.135Z,1007.03
2018-08-13T01:52:43.733Z,1007.02
2018-08-13T01:52:44.332Z,1007.00
2018-08-13T01:53:37.808Z,1007.00
2018-08-13T01:53:38.379Z,1007.01
2018-08-13T01:53:38.980Z,1006.98
2018-08-13T01:53:39.579Z,1007.03
2018-08-13T01:53:40.179Z,1007.02
2018-08-13T01:53:40.784Z,1007.00
2018-08-13T01:53:41.379Z,1007.02
2018-08-13T01:53:41.981Z,1007.02
2018-08-13T01:54:35.456Z,1007.00
2018-08-13T01:54:36.028Z,1006.99
2018-08-13T01:54:36.627Z,1006.99
2018-08-13T01:54:37.231Z,1007.01
2018-08-13T01:54:37.827Z,1007.01
2018-08-13T01:54:38.432Z,1006.97
2018-08-13T01:54:39.027Z,1006.98
2018-08-13T01:54:39.629Z,1006.99
2018-08-13T01:55:34.091Z,1007.03
2018-08-13T01:55:34.665Z,1007.04
2018-08-13T01:55:35.265Z,1007.00
2018-08-13T01:55:35.864Z,1007.01
2018-08-13T01:55:36.464Z,1007.02
2018-08-13T01:55:37.065Z,1007.02
2018-08-13T01:55:37.664Z,1007.02
2018-08-13T01:55:38.263Z,1006.99
2018-08-13T01:56:31.737Z,1006.99
2018-08-13T01:56:32.311Z,1007.04
2018-08-13T01:56:32.908Z,1007.00
2018-08-13T01:56:33.508Z,1007.01
2018-08-13T01:56:34.107Z,1007.02
2018-08-13T01:56:34.708Z,1007.02
2018-08-13T01:56:35.354Z,1007.00
2018-08-13T01:56:35.907Z,1007.01
2018-08-13T01:57:30.372Z,1007.01
2018-08-13T01:57:30.945Z,1007.05
2018-08-13T01:57:31.545Z,1007.04
2018-08-13T01:57:32.145Z,1007.01
2018-08-13T01:57:32.745Z,1007.02
2018-08-13T01:57:33.345Z,1007.03
2018-08-13T01:57:33.945Z,1007.01
2018-08-13T01:57:34.545Z,1007.01
2018-08-13T01:58:28.060Z,1007.02
2018-08-13T01:58:28.597Z,1006.99
2018-08-13T01:58:29.234Z,1006.99
2018-08-13T01:58:29.830Z,1006.98
2018-08-13T01:58:30.391Z,1006.99
2018-08-13T01:58:30.991Z,1006.98
2018-08-13T01:58:31.594Z,1006.97
2018-08-13T01:58:32.189Z,1006.99
2018-08-13T01:59:26.157Z,1006.97
2018-08-13T01:59:26.729Z,1006.97
2018-08-13T01:59:27.328Z,1006.98
2018-08-13T01:59:27.929Z,1007.02
2018-08-13T01:59:28.528Z,1006.99
2018-08-13T01:59:29.129Z,1006.99
2018-08-13T01:59:29.730Z,1006.95
2018-08-13T02:00:44.210Z,1006.94
2018-08-13T02:00:44.768Z,1006.99
2018-08-13T02:00:45.370Z,1006.96
2018-08-13T02:00:45.970Z,1006.95
2018-08-13T02:00:46.569Z,1006.97
2018-08-13T02:00:47.169Z,1006.98
2018-08-13T02:00:47.771Z,1006.97
2018-08-13T02:00:48.369Z,1006.94
2018-08-13T02:01:42.852Z,1006.96
2018-08-13T02:01:43.464Z,1006.96
2018-08-13T02:01:44.092Z,1006.95
2018-08-13T02:01:44.679Z,1006.93
2018-08-13T02:01:45.377Z,1006.94
2018-08-13T02:01:45.824Z,1006.93
2018-08-13T02:01:46.462Z,1006.99
2018-08-13T02:01:47.090Z,1006.94
2018-08-13T02:02:40.477Z,1006.94
2018-08-13T02:02:41.050Z,1006.95
2018-08-13T02:02:41.652Z,1006.95
2018-08-13T02:02:42.251Z,1006.94
2018-08-13T02:02:42.851Z,1006.99
2018-08-13T02:02:43.449Z,1006.93
2018-08-13T02:02:44.049Z,1006.94
2018-08-13T02:02:44.649Z,1006.95
2018-08-13T02:03:39.115Z,1006.96
2018-08-13T02:03:39.687Z,1006.95
2018-08-13T02:03:40.287Z,1006.97
2018-08-13T02:03:40.888Z,1006.97
2018-08-13T02:03:41.487Z,1006.95
2018-08-13T02:03:42.087Z,1006.95
2018-08-13T02:03:42.687Z,1006.96
2018-08-13T02:03:43.286Z,1006.95
2018-08-13T02:04:37.752Z,1006.94
2018-08-13T02:04:38.325Z,1006.96
2018-08-13T02:04:38.923Z,1006.95
2018-08-13T02:04:39.524Z,1006.94
2018-08-13T02:04:40.123Z,1006.93
2018-08-13T02:04:40.724Z,1006.93
2018-08-13T02:04:41.327Z,1006.93
2018-08-13T02:04:41.926Z,1006.94
2018-08-13T02:05:36.388Z,1006.91
2018-08-13T02:05:36.962Z,1006.90
2018-08-13T02:05:37.561Z,1006.94
2018-08-13T02:05:38.162Z,1006.90
2018-08-13T02:05:38.761Z,1006.90
2018-08-13T02:05:39.362Z,1006.93
2018-08-13T02:05:39.960Z,1006.93
2018-08-13T02:05:40.561Z,1006.92
2018-08-13T02:06:35.030Z,1006.92
2018-08-13T02:06:35.598Z,1006.91
2018-08-13T02:06:36.199Z,1006.96
2018-08-13T02:06:36.799Z,1006.94
2018-08-13T02:06:37.399Z,1006.92
2018-08-13T02:06:37.998Z,1006.93
2018-08-13T02:06:38.599Z,1006.91
2018-08-13T02:06:39.199Z,1006.91
2018-08-13T02:07:33.666Z,1006.91
2018-08-13T02:07:34.235Z,1006.95
2018-08-13T02:07:34.838Z,1006.94
2018-08-13T02:07:35.435Z,1006.97
2018-08-13T02:07:36.038Z,1006.94
2018-08-13T02:07:36.636Z,1006.89
2018-08-13T02:07:37.237Z,1006.93
2018-08-13T02:07:37.835Z,1006.92
2018-08-13T02:08:31.311Z,1006.90
2018-08-13T02:08:31.883Z,1006.94
2018-08-13T02:08:32.482Z,1006.93
2018-08-13T02:08:33.083Z,1006.94
2018-08-13T02:08:33.683Z,1006.92
2018-08-13T02:08:34.281Z,1006.93
2018-08-13T02:08:34.883Z,1006.91
2018-08-13T02:08:35.482Z,1006.92
2018-08-13T02:09:29.949Z,1006.93
2018-08-13T02:09:30.518Z,1006.94
2018-08-13T02:09:31.120Z,1006.90
2018-08-13T02:09:31.719Z,1006.91
2018-08-13T02:09:32.317Z,1006.90
2018-08-13T02:09:32.920Z,1006.92
2018-08-13T02:09:33.519Z,1006.95
2018-08-13T02:09:34.117Z,1006.94
2018-08-13T02:10:28.584Z,1006.94
2018-08-13T02:10:29.158Z,1006.92
2018-08-13T02:10:29.755Z,1006.92
2018-08-13T02:10:30.356Z,1006.92
2018-08-13T02:10:30.956Z,1006.94
2018-08-13T02:10:31.555Z,1006.93
2018-08-13T02:10:32.154Z,1006.92
2018-08-13T02:10:32.754Z,1006.92
2018-08-13T02:11:27.219Z,1006.95
2018-08-13T02:11:27.793Z,1006.97
2018-08-13T02:11:28.393Z,1006.93
2018-08-13T02:11:28.995Z,1006.95
2018-08-13T02:11:29.593Z,1006.97
2018-08-13T02:11:30.192Z,1006.97
2018-08-13T02:11:30.793Z,1006.97
2018-08-13T02:11:31.392Z,1006.95
2018-08-13T02:12:25.858Z,1006.94
2018-08-13T02:12:26.430Z,1006.94
2018-08-13T02:12:27.032Z,1006.95
2018-08-13T02:12:27.631Z,1006.94
2018-08-13T02:12:28.231Z,1006.94
2018-08-13T02:12:28.832Z,1006.95
2018-08-13T02:12:29.430Z,1006.96
2018-08-13T02:12:30.031Z,1006.96
2018-08-13T02:13:24.496Z,1006.95
2018-08-13T02:13:25.068Z,1006.95
2018-08-13T02:13:25.669Z,1006.98
2018-08-13T02:13:26.269Z,1006.95
2018-08-13T02:13:26.869Z,1006.94
2018-08-13T02:13:27.467Z,1006.98
2018-08-13T02:13:28.068Z,1006.97
2018-08-13T02:13:28.668Z,1006.93
2018-08-13T02:14:23.133Z,1006.94
2018-08-13T02:14:23.705Z,1006.97
2018-08-13T02:14:24.310Z,1006.95
2018-08-13T02:14:24.907Z,1006.93
2018-08-13T02:14:25.508Z,1006.94
2018-08-13T02:14:26.106Z,1006.96
2018-08-13T02:14:26.705Z,1006.94
2018-08-13T02:14:27.308Z,1006.95
2018-08-13T02:15:21.770Z,1006.92
2018-08-13T02:15:22.344Z,1006.96
2018-08-13T02:15:22.943Z,1006.95
2018-08-13T02:15:23.542Z,1006.96
2018-08-13T02:15:24.143Z,1006.95
2018-08-13T02:15:24.742Z,1006.95
2018-08-13T02:15:25.342Z,1006.95
2018-08-13T02:15:25.943Z,1006.91
2018-08-13T02:16:19.417Z,1006.97
2018-08-13T02:16:19.991Z,1006.93
2018-08-13T02:16:20.589Z,1006.97
2018-08-13T02:16:21.189Z,1006.97
2018-08-13T02:16:21.789Z,1006.96
2018-08-13T02:16:22.390Z,1006.95
2018-08-13T02:16:22.989Z,1006.95
2018-08-13T02:16:23.591Z,1006.96
2018-08-13T02:17:18.055Z,1007.01
2018-08-13T02:17:18.626Z,1006.96
2018-08-13T02:17:19.227Z,1006.96
2018-08-13T02:17:19.827Z,1006.95
2018-08-13T02:17:20.427Z,1006.99
2018-08-13T02:17:21.027Z,1006.99
2018-08-13T02:17:21.627Z,1006.97
2018-08-13T02:17:22.227Z,1006.99
2018-08-13T02:18:15.699Z,1006.98
2018-08-13T02:18:16.276Z,1007.00
2018-08-13T02:18:16.872Z,1007.02
2018-08-13T02:18:17.471Z,1006.98
2018-08-13T02:18:18.072Z,1006.99
2018-08-13T02:18:18.671Z,1007.00
2018-08-13T02:18:19.271Z,1007.00
2018-08-13T02:18:19.871Z,1006.99
2018-08-13T02:19:14.336Z,1006.97
2018-08-13T02:19:14.913Z,1006.98
2018-08-13T02:19:15.508Z,1006.97
2018-08-13T02:19:16.109Z,1006.93
2018-08-13T02:19:16.708Z,1006.98
2018-08-13T02:19:17.309Z,1006.99
2018-08-13T02:19:17.908Z,1007.00
2018-08-13T02:19:18.510Z,1006.98
2018-08-13T02:20:12.975Z,1007.01
2018-08-13T02:20:13.547Z,1006.96
2018-08-13T02:20:14.147Z,1006.90
2018-08-13T02:20:14.746Z,1006.95
2018-08-13T02:20:15.348Z,1006.98
2018-08-13T02:20:15.947Z,1006.96
2018-08-13T02:20:16.546Z,1006.95
2018-08-13T02:20:17.147Z,1006.97
2018-08-13T02:21:11.611Z,1006.93
2018-08-13T02:21:12.186Z,1006.92
2018-08-13T02:21:12.786Z,1006.90
2018-08-13T02:21:13.431Z,1006.89
2018-08-13T02:21:13.984Z,1006.91
2018-08-13T02:21:14.585Z,1006.88
2018-08-13T02:21:15.185Z,1006.88
2018-08-13T02:21:15.785Z,1006.92
2018-08-13T02:22:09.261Z,1006.89
2018-08-13T02:22:09.834Z,1006.88
2018-08-13T02:22:10.430Z,1006.89
2018-08-13T02:22:11.031Z,1006.88
2018-08-13T02:22:11.634Z,1006.92
2018-08-13T02:22:12.250Z,1006.91
2018-08-13T02:22:12.831Z,1006.91
2018-08-13T02:22:13.430Z,1006.88
2018-08-13T02:23:06.904Z,1006.87
2018-08-13T02:23:07.477Z,1006.86
2018-08-13T02:23:08.077Z,1006.88
2018-08-13T02:23:08.677Z,1006.90
2018-08-13T02:23:09.275Z,1006.91
2018-08-13T02:23:09.875Z,1006.89
2018-08-13T02:23:10.476Z,1006.89
2018-08-13T02:23:11.075Z,1006.87
2018-08-13T02:24:05.543Z,1006.87
2018-08-13T02:24:06.116Z,1006.91
2018-08-13T02:24:06.717Z,1006.86
2018-08-13T02:24:07.319Z,1006.85
2018-08-13T02:24:07.917Z,1006.86
2018-08-13T02:24:08.516Z,1006.86
2018-08-13T02:24:09.116Z,1006.85
2018-08-13T02:24:09.716Z,1006.85
2018-08-13T02:25:03.189Z,1006.84
2018-08-13T02:25:03.765Z,1006.84
2018-08-13T02:25:04.365Z,1006.85
2018-08-13T02:25:04.962Z,1006.82
2018-08-13T02:25:05.563Z,1006.85
2018-08-13T02:25:06.163Z,1006.84
2018-08-13T02:25:06.763Z,1006.83
2018-08-13T02:25:07.363Z,1006.80
2018-08-13T02:26:00.836Z,1006.83
2018-08-13T02:26:01.410Z,1006.86
2018-08-13T02:26:02.010Z,1006.84
2018-08-13T02:26:02.610Z,1006.83
2018-08-13T02:26:03.209Z,1006.81
2018-08-13T02:26:03.809Z,1006.82
2018-08-13T02:26:04.413Z,1006.82
2018-08-13T02:26:05.009Z,1006.84
2018-08-13T02:26:58.484Z,1006.83
2018-08-13T02:26:59.056Z,1006.83
2018-08-13T02:26:59.657Z,1006.82
2018-08-13T02:27:00.255Z,1006.82
2018-08-13T02:27:00.855Z,1006.83
2018-08-13T02:27:01.457Z,1006.84
2018-08-13T02:27:02.055Z,1006.85
2018-08-13T02:27:02.656Z,1006.83
2018-08-13T02:27:56.129Z,1006.84
2018-08-13T02:27:56.702Z,1006.82
2018-08-13T02:27:57.302Z,1006.82
2018-08-13T02:27:57.901Z,1006.83
2018-08-13T02:27:58.502Z,1006.86
2018-08-13T02:27:59.102Z,1006.85
2018-08-13T02:27:59.702Z,1006.85
2018-08-13T02:28:00.307Z,1006.82
2018-08-13T02:28:53.775Z,1006.82
2018-08-13T02:28:54.351Z,1006.82
2018-08-13T02:28:54.950Z,1006.83
2018-08-13T02:28:55.548Z,1006.84
2018-08-13T02:28:56.147Z,1006.83
2018-08-13T02:28:56.749Z,1006.82
2018-08-13T02:28:57.349Z,1006.83
2018-08-13T02:28:57.950Z,1006.84
2018-08-13T02:29:52.414Z,1006.82
2018-08-13T02:29:52.986Z,1006.81
2018-08-13T02:29:53.587Z,1006.82
2018-08-13T02:29:54.187Z,1006.82
2018-08-13T02:29:54.788Z,1006.84
2018-08-13T02:29:55.390Z,1006.83
2018-08-13T02:29:55.985Z,1006.81
2018-08-13T02:29:56.586Z,1006.82
2018-08-13T02:30:50.109Z,1006.78
2018-08-13T02:30:50.634Z,1006.83
2018-08-13T02:30:51.236Z,1006.83
2018-08-13T02:30:51.832Z,1006.83
2018-08-13T02:30:52.432Z,1006.80
2018-08-13T02:30:53.034Z,1006.83
2018-08-13T02:30:53.633Z,1006.80
2018-08-13T02:30:54.232Z,1006.77
2018-08-13T02:31:47.708Z,1006.81
2018-08-13T02:31:48.281Z,1006.81
2018-08-13T02:31:48.879Z,1006.79
2018-08-13T02:31:49.479Z,1006.80
2018-08-13T02:31:50.081Z,1006.82
2018-08-13T02:31:50.680Z,1006.81
2018-08-13T02:31:51.278Z,1006.79
2018-08-13T02:31:51.879Z,1006.81
2018-08-13T02:32:45.356Z,1006.78
2018-08-13T02:32:45.925Z,1006.78
2018-08-13T02:32:46.529Z,1006.79
2018-08-13T02:32:47.129Z,1006.80
2018-08-13T02:32:47.731Z,1006.79
2018-08-13T02:32:48.328Z,1006.78
2018-08-13T02:32:48.929Z,1006.79
2018-08-13T02:32:49.525Z,1006.81
2018-08-13T02:33:43.989Z,1006.81
2018-08-13T02:33:44.564Z,1006.79
2018-08-13T02:33:45.164Z,1006.79
2018-08-13T02:33:45.763Z,1006.78
2018-08-13T02:33:46.364Z,1006.81
2018-08-13T02:33:46.963Z,1006.80
2018-08-13T02:33:47.569Z,1006.80
2018-08-13T02:33:48.169Z,1006.77
2018-08-13T02:34:41.637Z,1006.78
2018-08-13T02:34:42.211Z,1006.79
2018-08-13T02:34:42.810Z,1006.79
2018-08-13T02:34:43.409Z,1006.81
2018-08-13T02:34:44.011Z,1006.82
2018-08-13T02:34:44.611Z,1006.80
2018-08-13T02:34:45.210Z,1006.79
2018-08-13T02:34:45.810Z,1006.79
2018-08-13T02:35:39.295Z,1006.77
2018-08-13T02:35:39.856Z,1006.77
2018-08-13T02:35:40.456Z,1006.77
2018-08-13T02:35:41.056Z,1006.78
2018-08-13T02:35:41.654Z,1006.77
2018-08-13T02:35:42.255Z,1006.78
2018-08-13T02:35:42.857Z,1006.76
2018-08-13T02:35:43.457Z,1006.78
2018-08-13T02:36:37.919Z,1006.77
2018-08-13T02:36:38.493Z,1006.77
2018-08-13T02:36:39.091Z,1006.75
2018-08-13T02:36:39.694Z,1006.78
2018-08-13T02:36:40.293Z,1006.78
2018-08-13T02:36:40.895Z,1006.77
2018-08-13T02:36:41.495Z,1006.79
2018-08-13T02:36:42.097Z,1006.78
2018-08-13T02:37:35.566Z,1006.79
2018-08-13T02:37:36.140Z,1006.79
2018-08-13T02:37:36.740Z,1006.81
2018-08-13T02:37:37.339Z,1006.76
2018-08-13T02:37:37.940Z,1006.80
2018-08-13T02:37:38.538Z,1006.76
2018-08-13T02:37:39.139Z,1006.78
2018-08-13T02:37:39.743Z,1006.81
2018-08-13T02:38:33.213Z,1006.79
2018-08-13T02:38:33.786Z,1006.79
2018-08-13T02:38:34.386Z,1006.76
2018-08-13T02:38:34.987Z,1006.78
2018-08-13T02:38:35.585Z,1006.79
2018-08-13T02:38:36.185Z,1006.75
2018-08-13T02:38:36.785Z,1006.79
2018-08-13T02:38:37.387Z,1006.75
2018-08-13T02:39:31.851Z,1006.74
2018-08-13T02:39:32.424Z,1006.75
2018-08-13T02:39:33.024Z,1006.75
2018-08-13T02:39:33.625Z,1006.75
2018-08-13T02:39:34.227Z,1006.72
2018-08-13T02:39:34.823Z,1006.74
2018-08-13T02:39:35.423Z,1006.73
2018-08-13T02:39:36.024Z,1006.75
2018-08-13T02:40:30.488Z,1006.74
2018-08-13T02:40:31.061Z,1006.71
2018-08-13T02:40:31.663Z,1006.74
2018-08-13T02:40:32.262Z,1006.73
2018-08-13T02:40:32.862Z,1006.75
2018-08-13T02:40:33.462Z,1006.71
2018-08-13T02:40:34.062Z,1006.80
2018-08-13T02:40:34.660Z,1006.74
2018-08-13T02:41:28.140Z,1006.72
2018-08-13T02:41:28.708Z,1006.67
2018-08-13T02:41:29.307Z,1006.67
2018-08-13T02:41:29.913Z,1006.69
2018-08-13T02:41:30.509Z,1006.66
2018-08-13T02:41:31.108Z,1006.70
2018-08-13T02:41:31.709Z,1006.70
2018-08-13T02:41:32.309Z,1006.68
2018-08-13T02:42:25.782Z,1006.64
2018-08-13T02:42:26.353Z,1006.65
2018-08-13T02:42:26.953Z,1006.65
2018-08-13T02:42:27.563Z,1006.68
2018-08-13T02:42:28.152Z,1006.66
2018-08-13T02:42:28.752Z,1006.68
2018-08-13T02:42:29.353Z,1006.69
2018-08-13T02:42:29.951Z,1006.67
2018-08-13T02:43:23.427Z,1006.64
2018-08-13T02:43:24.000Z,1006.65
2018-08-13T02:43:24.599Z,1006.65
2018-08-13T02:43:25.203Z,1006.65
2018-08-13T02:43:25.804Z,1006.63
2018-08-13T02:43:26.401Z,1006.63
2018-08-13T02:43:27.000Z,1006.68
2018-08-13T02:43:27.601Z,1006.67
2018-08-13T02:44:22.067Z,1006.69
2018-08-13T02:44:22.651Z,1006.60
2018-08-13T02:44:23.240Z,1006.65
2018-08-13T02:44:23.840Z,1006.64
2018-08-13T02:44:24.440Z,1006.65
2018-08-13T02:44:25.050Z,1006.62
2018-08-13T02:44:25.641Z,1006.65
2018-08-13T02:44:26.238Z,1006.65
2018-08-13T02:45:20.704Z,1006.63
2018-08-13T02:45:21.280Z,1006.64
2018-08-13T02:45:21.882Z,1006.62
2018-08-13T02:45:22.479Z,1006.63
2018-08-13T02:45:23.077Z,1006.63
2018-08-13T02:45:23.677Z,1006.62
2018-08-13T02:45:24.277Z,1006.63
2018-08-13T02:45:24.883Z,1006.66
2018-08-13T02:46:19.341Z,1006.65
2018-08-13T02:46:19.915Z,1006.67
2018-08-13T02:46:20.515Z,1006.64
2018-08-13T02:46:21.115Z,1006.63
2018-08-13T02:46:21.715Z,1006.65
2018-08-13T02:46:22.315Z,1006.66
2018-08-13T02:46:22.914Z,1006.64
2018-08-13T02:46:23.516Z,1006.64
2018-08-13T02:47:16.990Z,1006.62
2018-08-13T02:47:17.562Z,1006.59
2018-08-13T02:47:18.163Z,1006.62
2018-08-13T02:47:18.762Z,1006.57
2018-08-13T02:47:19.363Z,1006.56
2018-08-13T02:47:19.966Z,1006.64
2018-08-13T02:47:20.562Z,1006.60
2018-08-13T02:47:21.165Z,1006.61
2018-08-13T02:48:14.640Z,1006.60
2018-08-13T02:48:15.212Z,1006.57
2018-08-13T02:48:15.811Z,1006.57
2018-08-13T02:48:16.412Z,1006.58
2018-08-13T02:48:17.014Z,1006.59
2018-08-13T02:48:17.609Z,1006.58
2018-08-13T02:48:18.207Z,1006.59
2018-08-13T02:48:18.812Z,1006.56
2018-08-13T02:49:12.285Z,1006.57
2018-08-13T02:49:12.857Z,1006.58
2018-08-13T02:49:13.457Z,1006.57
2018-08-13T02:49:14.057Z,1006.57
2018-08-13T02:49:14.657Z,1006.58
2018-08-13T02:49:15.257Z,1006.55
2018-08-13T02:49:15.857Z,1006.59
2018-08-13T02:49:16.461Z,1006.58
2018-08-13T02:50:10.921Z,1006.54
2018-08-13T02:50:11.495Z,1006.54
2018-08-13T02:50:12.094Z,1006.52
2018-08-13T02:50:12.695Z,1006.52
2018-08-13T02:50:13.294Z,1006.55
2018-08-13T02:50:13.894Z,1006.56
2018-08-13T02:50:14.493Z,1006.55
2018-08-13T02:50:15.095Z,1006.53
2018-08-13T02:51:09.559Z,1006.50
2018-08-13T02:51:10.131Z,1006.49
2018-08-13T02:51:10.742Z,1006.52
2018-08-13T02:51:11.331Z,1006.50
2018-08-13T02:51:11.932Z,1006.52
2018-08-13T02:51:12.532Z,1006.50
2018-08-13T02:51:13.133Z,1006.49
2018-08-13T02:51:13.736Z,1006.49
2018-08-13T02:52:08.198Z,1006.48
2018-08-13T02:52:08.769Z,1006.50
2018-08-13T02:52:09.369Z,1006.48
2018-08-13T02:52:09.969Z,1006.47
2018-08-13T02:52:10.569Z,1006.49
2018-08-13T02:52:11.169Z,1006.48
2018-08-13T02:52:11.770Z,1006.48
2018-08-13T02:52:12.369Z,1006.50
2018-08-13T02:53:06.833Z,1006.46
2018-08-13T02:53:07.409Z,1006.47
2018-08-13T02:53:08.007Z,1006.47
2018-08-13T02:53:08.608Z,1006.45
2018-08-13T02:53:09.209Z,1006.45
2018-08-13T02:53:09.808Z,1006.44
2018-08-13T02:53:10.409Z,1006.45
2018-08-13T02:53:11.008Z,1006.47
2018-08-13T02:54:04.482Z,1006.44
2018-08-13T02:54:05.053Z,1006.43
2018-08-13T02:54:05.651Z,1006.42
2018-08-13T02:54:06.252Z,1006.40
2018-08-13T02:54:06.852Z,1006.41
2018-08-13T02:54:07.452Z,1006.45
2018-08-13T02:54:08.051Z,1006.43
2018-08-13T02:54:08.651Z,1006.42
2018-08-13T02:55:02.124Z,1006.41
2018-08-13T02:55:02.699Z,1006.44
2018-08-13T02:55:03.297Z,1006.45
2018-08-13T02:55:03.897Z,1006.40
2018-08-13T02:55:04.496Z,1006.43
2018-08-13T02:55:05.096Z,1006.43
2018-08-13T02:55:05.696Z,1006.42
2018-08-13T02:55:06.296Z,1006.42
2018-08-13T02:55:59.770Z,1006.45
2018-08-13T02:56:00.343Z,1006.43
2018-08-13T02:56:00.944Z,1006.44
2018-08-13T02:56:01.544Z,1006.43
2018-08-13T02:56:02.143Z,1006.42
2018-08-13T02:56:02.748Z,1006.43
2018-08-13T02:56:03.341Z,1006.44
2018-08-13T02:56:03.942Z,1006.42
2018-08-13T02:56:58.411Z,1006.43
2018-08-13T02:56:58.981Z,1006.43
2018-08-13T02:56:59.582Z,1006.40
2018-08-13T02:57:00.183Z,1006.42
2018-08-13T02:57:00.788Z,1006.41
2018-08-13T02:57:01.382Z,1006.43
2018-08-13T02:57:01.981Z,1006.43